<?xml version="1.0" encoding="UTF-8" standalone="no" ?>
<gpx xmlns="http://www.topografix.com/GPX/1/1" xmlns:xsi="http://www.w3.org/2001/XMLSchema-instance" xsi:schemaLocation="http://www.topografix.com/GPX/1/1 http://www.topografix.com/GPX/1/1/gpx.xsd" version="1.1" creator="VisuGPX - https://www.visugpx.com">
  <metadata>
    <name>La Chapelle-de-Guinchay Cyclisme</name>
    <desc><![CDATA[Col de Crie au départ de Le Razay]]></desc>
  </metadata>
  <trk>
    <name><![CDATA[La Chapelle-de-Guinchay Cyclisme]]></name>
    <trkseg>
      <trkpt lat="46.24241" lon="4.58251">
        <ele>429.20001220703</ele>
        <time>2019-02-18T14:20:13.000Z</time>
      </trkpt>
      <trkpt lat="46.24231" lon="4.58234">
        <ele>431.60000610352</ele>
        <time>2019-02-18T14:20:17.000Z</time>
      </trkpt>
      <trkpt lat="46.24226" lon="4.58227">
        <ele>432</ele>
        <time>2019-02-18T14:20:19.000Z</time>
      </trkpt>
      <trkpt lat="46.24214" lon="4.58216">
        <ele>432.20001220703</ele>
        <time>2019-02-18T14:20:23.000Z</time>
      </trkpt>
      <trkpt lat="46.24205" lon="4.58207">
        <ele>432.39999389648</ele>
        <time>2019-02-18T14:20:26.000Z</time>
      </trkpt>
      <trkpt lat="46.242" lon="4.58201">
        <ele>432.60000610352</ele>
        <time>2019-02-18T14:20:28.000Z</time>
      </trkpt>
      <trkpt lat="46.24187" lon="4.58188">
        <ele>432</ele>
        <time>2019-02-18T14:20:33.000Z</time>
      </trkpt>
      <trkpt lat="46.24175" lon="4.58174">
        <ele>431.60000610352</ele>
        <time>2019-02-18T14:20:38.000Z</time>
      </trkpt>
      <trkpt lat="46.24167" lon="4.58162">
        <ele>431.60000610352</ele>
        <time>2019-02-18T14:20:42.000Z</time>
      </trkpt>
      <trkpt lat="46.24162" lon="4.58152">
        <ele>431.79998779297</ele>
        <time>2019-02-18T14:20:45.000Z</time>
      </trkpt>
      <trkpt lat="46.24157" lon="4.58137">
        <ele>432.60000610352</ele>
        <time>2019-02-18T14:20:49.000Z</time>
      </trkpt>
      <trkpt lat="46.24154" lon="4.58124">
        <ele>433.79998779297</ele>
        <time>2019-02-18T14:20:52.000Z</time>
      </trkpt>
      <trkpt lat="46.24148" lon="4.58098">
        <ele>435.20001220703</ele>
        <time>2019-02-18T14:20:58.000Z</time>
      </trkpt>
      <trkpt lat="46.24146" lon="4.58085">
        <ele>435.79998779297</ele>
        <time>2019-02-18T14:21:01.000Z</time>
      </trkpt>
      <trkpt lat="46.24142" lon="4.58069">
        <ele>436.60000610352</ele>
        <time>2019-02-18T14:21:05.000Z</time>
      </trkpt>
      <trkpt lat="46.2414" lon="4.58056">
        <ele>437.20001220703</ele>
        <time>2019-02-18T14:21:08.000Z</time>
      </trkpt>
      <trkpt lat="46.24135" lon="4.58032">
        <ele>438.39999389648</ele>
        <time>2019-02-18T14:21:14.000Z</time>
      </trkpt>
      <trkpt lat="46.24134" lon="4.58024">
        <ele>438.39999389648</ele>
        <time>2019-02-18T14:21:16.000Z</time>
      </trkpt>
      <trkpt lat="46.24133" lon="4.5802">
        <ele>438.39999389648</ele>
        <time>2019-02-18T14:21:17.000Z</time>
      </trkpt>
      <trkpt lat="46.24131" lon="4.57991">
        <ele>439.20001220703</ele>
        <time>2019-02-18T14:21:24.000Z</time>
      </trkpt>
      <trkpt lat="46.24131" lon="4.57986">
        <ele>439.39999389648</ele>
        <time>2019-02-18T14:21:25.000Z</time>
      </trkpt>
      <trkpt lat="46.24136" lon="4.57966">
        <ele>440.79998779297</ele>
        <time>2019-02-18T14:21:30.000Z</time>
      </trkpt>
      <trkpt lat="46.2414" lon="4.57946">
        <ele>442.20001220703</ele>
        <time>2019-02-18T14:21:35.000Z</time>
      </trkpt>
      <trkpt lat="46.24143" lon="4.57933">
        <ele>443.20001220703</ele>
        <time>2019-02-18T14:21:38.000Z</time>
      </trkpt>
      <trkpt lat="46.24146" lon="4.57912">
        <ele>444.39999389648</ele>
        <time>2019-02-18T14:21:43.000Z</time>
      </trkpt>
      <trkpt lat="46.24147" lon="4.57907">
        <ele>444.79998779297</ele>
        <time>2019-02-18T14:21:44.000Z</time>
      </trkpt>
      <trkpt lat="46.24147" lon="4.57894">
        <ele>445.20001220703</ele>
        <time>2019-02-18T14:21:47.000Z</time>
      </trkpt>
      <trkpt lat="46.24148" lon="4.5788">
        <ele>446</ele>
        <time>2019-02-18T14:21:50.000Z</time>
      </trkpt>
      <trkpt lat="46.24146" lon="4.57855">
        <ele>446.79998779297</ele>
        <time>2019-02-18T14:21:56.000Z</time>
      </trkpt>
      <trkpt lat="46.24143" lon="4.57842">
        <ele>447</ele>
        <time>2019-02-18T14:21:59.000Z</time>
      </trkpt>
      <trkpt lat="46.24137" lon="4.57822">
        <ele>447.20001220703</ele>
        <time>2019-02-18T14:22:04.000Z</time>
      </trkpt>
      <trkpt lat="46.24133" lon="4.5781">
        <ele>447.20001220703</ele>
        <time>2019-02-18T14:22:07.000Z</time>
      </trkpt>
      <trkpt lat="46.24125" lon="4.57787">
        <ele>447.20001220703</ele>
        <time>2019-02-18T14:22:13.000Z</time>
      </trkpt>
      <trkpt lat="46.24124" lon="4.57783">
        <ele>447.20001220703</ele>
        <time>2019-02-18T14:22:14.000Z</time>
      </trkpt>
      <trkpt lat="46.24116" lon="4.57761">
        <ele>448</ele>
        <time>2019-02-18T14:22:20.000Z</time>
      </trkpt>
      <trkpt lat="46.24108" lon="4.57738">
        <ele>448.39999389648</ele>
        <time>2019-02-18T14:22:26.000Z</time>
      </trkpt>
      <trkpt lat="46.24106" lon="4.57732">
        <ele>448.39999389648</ele>
        <time>2019-02-18T14:22:28.000Z</time>
      </trkpt>
      <trkpt lat="46.24094" lon="4.577">
        <ele>448.60000610352</ele>
        <time>2019-02-18T14:22:37.000Z</time>
      </trkpt>
      <trkpt lat="46.24085" lon="4.57675">
        <ele>447.79998779297</ele>
        <time>2019-02-18T14:22:44.000Z</time>
      </trkpt>
      <trkpt lat="46.24082" lon="4.57667">
        <ele>447.60000610352</ele>
        <time>2019-02-18T14:22:46.000Z</time>
      </trkpt>
      <trkpt lat="46.24077" lon="4.57651">
        <ele>447.39999389648</ele>
        <time>2019-02-18T14:22:50.000Z</time>
      </trkpt>
      <trkpt lat="46.24076" lon="4.57647">
        <ele>447.39999389648</ele>
        <time>2019-02-18T14:22:51.000Z</time>
      </trkpt>
      <trkpt lat="46.24075" lon="4.5762">
        <ele>447.79998779297</ele>
        <time>2019-02-18T14:22:57.000Z</time>
      </trkpt>
      <trkpt lat="46.24075" lon="4.57611">
        <ele>448</ele>
        <time>2019-02-18T14:22:59.000Z</time>
      </trkpt>
      <trkpt lat="46.2408" lon="4.57587">
        <ele>449</ele>
        <time>2019-02-18T14:23:05.000Z</time>
      </trkpt>
      <trkpt lat="46.24083" lon="4.57579">
        <ele>449.60000610352</ele>
        <time>2019-02-18T14:23:07.000Z</time>
      </trkpt>
      <trkpt lat="46.24092" lon="4.57558">
        <ele>451.39999389648</ele>
        <time>2019-02-18T14:23:13.000Z</time>
      </trkpt>
      <trkpt lat="46.24101" lon="4.57539">
        <ele>453</ele>
        <time>2019-02-18T14:23:18.000Z</time>
      </trkpt>
      <trkpt lat="46.24102" lon="4.57535">
        <ele>453.20001220703</ele>
        <time>2019-02-18T14:23:19.000Z</time>
      </trkpt>
      <trkpt lat="46.2411" lon="4.57517">
        <ele>455.20001220703</ele>
        <time>2019-02-18T14:23:24.000Z</time>
      </trkpt>
      <trkpt lat="46.24114" lon="4.57505">
        <ele>456.39999389648</ele>
        <time>2019-02-18T14:23:27.000Z</time>
      </trkpt>
      <trkpt lat="46.2412" lon="4.57478">
        <ele>457.60000610352</ele>
        <time>2019-02-18T14:23:34.000Z</time>
      </trkpt>
      <trkpt lat="46.24121" lon="4.57474">
        <ele>457.79998779297</ele>
        <time>2019-02-18T14:23:35.000Z</time>
      </trkpt>
      <trkpt lat="46.24122" lon="4.57443">
        <ele>458.79998779297</ele>
        <time>2019-02-18T14:23:42.000Z</time>
      </trkpt>
      <trkpt lat="46.24122" lon="4.57439">
        <ele>459</ele>
        <time>2019-02-18T14:23:43.000Z</time>
      </trkpt>
      <trkpt lat="46.24121" lon="4.57427">
        <ele>459.79998779297</ele>
        <time>2019-02-18T14:23:46.000Z</time>
      </trkpt>
      <trkpt lat="46.24119" lon="4.57411">
        <ele>460.60000610352</ele>
        <time>2019-02-18T14:23:50.000Z</time>
      </trkpt>
      <trkpt lat="46.24116" lon="4.57399">
        <ele>461.20001220703</ele>
        <time>2019-02-18T14:23:53.000Z</time>
      </trkpt>
      <trkpt lat="46.24115" lon="4.57387">
        <ele>462</ele>
        <time>2019-02-18T14:23:56.000Z</time>
      </trkpt>
      <trkpt lat="46.24114" lon="4.57383">
        <ele>462.20001220703</ele>
        <time>2019-02-18T14:23:57.000Z</time>
      </trkpt>
      <trkpt lat="46.2411" lon="4.57355">
        <ele>463.79998779297</ele>
        <time>2019-02-18T14:24:04.000Z</time>
      </trkpt>
      <trkpt lat="46.24109" lon="4.57346">
        <ele>464.39999389648</ele>
        <time>2019-02-18T14:24:06.000Z</time>
      </trkpt>
      <trkpt lat="46.24107" lon="4.57329">
        <ele>465.60000610352</ele>
        <time>2019-02-18T14:24:10.000Z</time>
      </trkpt>
      <trkpt lat="46.24101" lon="4.57301">
        <ele>467.39999389648</ele>
        <time>2019-02-18T14:24:17.000Z</time>
      </trkpt>
      <trkpt lat="46.24101" lon="4.57297">
        <ele>467.60000610352</ele>
        <time>2019-02-18T14:24:18.000Z</time>
      </trkpt>
      <trkpt lat="46.24097" lon="4.5728">
        <ele>468.39999389648</ele>
        <time>2019-02-18T14:24:22.000Z</time>
      </trkpt>
      <trkpt lat="46.24096" lon="4.57276">
        <ele>468.39999389648</ele>
        <time>2019-02-18T14:24:23.000Z</time>
      </trkpt>
      <trkpt lat="46.2409" lon="4.57256">
        <ele>468.60000610352</ele>
        <time>2019-02-18T14:24:28.000Z</time>
      </trkpt>
      <trkpt lat="46.24088" lon="4.57248">
        <ele>468.79998779297</ele>
        <time>2019-02-18T14:24:30.000Z</time>
      </trkpt>
      <trkpt lat="46.24086" lon="4.57245">
        <ele>468.79998779297</ele>
        <time>2019-02-18T14:24:31.000Z</time>
      </trkpt>
      <trkpt lat="46.24082" lon="4.57231">
        <ele>468.79998779297</ele>
        <time>2019-02-18T14:24:35.000Z</time>
      </trkpt>
      <trkpt lat="46.24081" lon="4.57227">
        <ele>469</ele>
        <time>2019-02-18T14:24:36.000Z</time>
      </trkpt>
      <trkpt lat="46.24076" lon="4.57211">
        <ele>469.20001220703</ele>
        <time>2019-02-18T14:24:40.000Z</time>
      </trkpt>
      <trkpt lat="46.2407" lon="4.57192">
        <ele>469.60000610352</ele>
        <time>2019-02-18T14:24:45.000Z</time>
      </trkpt>
      <trkpt lat="46.24069" lon="4.57188">
        <ele>469.60000610352</ele>
        <time>2019-02-18T14:24:46.000Z</time>
      </trkpt>
      <trkpt lat="46.24061" lon="4.57165">
        <ele>470.20001220703</ele>
        <time>2019-02-18T14:24:52.000Z</time>
      </trkpt>
      <trkpt lat="46.24046" lon="4.57141">
        <ele>471</ele>
        <time>2019-02-18T14:24:59.000Z</time>
      </trkpt>
      <trkpt lat="46.24029" lon="4.57126">
        <ele>471.39999389648</ele>
        <time>2019-02-18T14:25:05.000Z</time>
      </trkpt>
      <trkpt lat="46.24026" lon="4.57125">
        <ele>471.20001220703</ele>
        <time>2019-02-18T14:25:06.000Z</time>
      </trkpt>
      <trkpt lat="46.24009" lon="4.57118">
        <ele>471</ele>
        <time>2019-02-18T14:25:12.000Z</time>
      </trkpt>
      <trkpt lat="46.24004" lon="4.57116">
        <ele>471.39999389648</ele>
        <time>2019-02-18T14:25:14.000Z</time>
      </trkpt>
      <trkpt lat="46.23996" lon="4.57112">
        <ele>471.60000610352</ele>
        <time>2019-02-18T14:25:17.000Z</time>
      </trkpt>
      <trkpt lat="46.23989" lon="4.57108">
        <ele>472.20001220703</ele>
        <time>2019-02-18T14:25:20.000Z</time>
      </trkpt>
      <trkpt lat="46.23975" lon="4.57095">
        <ele>474.20001220703</ele>
        <time>2019-02-18T14:25:26.000Z</time>
      </trkpt>
      <trkpt lat="46.23968" lon="4.57088">
        <ele>475.79998779297</ele>
        <time>2019-02-18T14:25:29.000Z</time>
      </trkpt>
      <trkpt lat="46.23956" lon="4.57073">
        <ele>479</ele>
        <time>2019-02-18T14:25:35.000Z</time>
      </trkpt>
      <trkpt lat="46.23944" lon="4.57057">
        <ele>482.20001220703</ele>
        <time>2019-02-18T14:25:41.000Z</time>
      </trkpt>
      <trkpt lat="46.23933" lon="4.57045">
        <ele>484.79998779297</ele>
        <time>2019-02-18T14:25:46.000Z</time>
      </trkpt>
      <trkpt lat="46.23931" lon="4.57043">
        <ele>485.20001220703</ele>
        <time>2019-02-18T14:25:47.000Z</time>
      </trkpt>
      <trkpt lat="46.2392" lon="4.57031">
        <ele>487.60000610352</ele>
        <time>2019-02-18T14:25:52.000Z</time>
      </trkpt>
      <trkpt lat="46.23906" lon="4.57022">
        <ele>489.39999389648</ele>
        <time>2019-02-18T14:25:57.000Z</time>
      </trkpt>
      <trkpt lat="46.23904" lon="4.5702">
        <ele>489.79998779297</ele>
        <time>2019-02-18T14:25:58.000Z</time>
      </trkpt>
      <trkpt lat="46.23895" lon="4.57011">
        <ele>491.39999389648</ele>
        <time>2019-02-18T14:26:02.000Z</time>
      </trkpt>
      <trkpt lat="46.2389" lon="4.57006">
        <ele>490.79998779297</ele>
        <time>2019-02-18T14:26:04.000Z</time>
      </trkpt>
      <trkpt lat="46.23877" lon="4.56998">
        <ele>489</ele>
        <time>2019-02-18T14:26:09.000Z</time>
      </trkpt>
      <trkpt lat="46.23873" lon="4.56993">
        <ele>488.79998779297</ele>
        <time>2019-02-18T14:26:11.000Z</time>
      </trkpt>
      <trkpt lat="46.23866" lon="4.56985">
        <ele>488.20001220703</ele>
        <time>2019-02-18T14:26:14.000Z</time>
      </trkpt>
      <trkpt lat="46.23863" lon="4.56983">
        <ele>488.20001220703</ele>
        <time>2019-02-18T14:26:15.000Z</time>
      </trkpt>
      <trkpt lat="46.23847" lon="4.56958">
        <ele>488</ele>
        <time>2019-02-18T14:26:23.000Z</time>
      </trkpt>
      <trkpt lat="46.23842" lon="4.56948">
        <ele>488</ele>
        <time>2019-02-18T14:26:26.000Z</time>
      </trkpt>
      <trkpt lat="46.23836" lon="4.56934">
        <ele>487.39999389648</ele>
        <time>2019-02-18T14:26:30.000Z</time>
      </trkpt>
      <trkpt lat="46.23835" lon="4.5693">
        <ele>487.39999389648</ele>
        <time>2019-02-18T14:26:31.000Z</time>
      </trkpt>
      <trkpt lat="46.23833" lon="4.56919">
        <ele>487.60000610352</ele>
        <time>2019-02-18T14:26:34.000Z</time>
      </trkpt>
      <trkpt lat="46.23831" lon="4.56903">
        <ele>488.20001220703</ele>
        <time>2019-02-18T14:26:38.000Z</time>
      </trkpt>
      <trkpt lat="46.23831" lon="4.569">
        <ele>488.39999389648</ele>
        <time>2019-02-18T14:26:39.000Z</time>
      </trkpt>
      <trkpt lat="46.23832" lon="4.56874">
        <ele>490.39999389648</ele>
        <time>2019-02-18T14:26:46.000Z</time>
      </trkpt>
      <trkpt lat="46.23833" lon="4.56871">
        <ele>490.79998779297</ele>
        <time>2019-02-18T14:26:47.000Z</time>
      </trkpt>
      <trkpt lat="46.23835" lon="4.56839">
        <ele>492.79998779297</ele>
        <time>2019-02-18T14:26:56.000Z</time>
      </trkpt>
      <trkpt lat="46.23836" lon="4.56831">
        <ele>493.20001220703</ele>
        <time>2019-02-18T14:26:58.000Z</time>
      </trkpt>
      <trkpt lat="46.23837" lon="4.56805">
        <ele>494.60000610352</ele>
        <time>2019-02-18T14:27:05.000Z</time>
      </trkpt>
      <trkpt lat="46.23838" lon="4.56787">
        <ele>495.39999389648</ele>
        <time>2019-02-18T14:27:10.000Z</time>
      </trkpt>
      <trkpt lat="46.23839" lon="4.56783">
        <ele>495.60000610352</ele>
        <time>2019-02-18T14:27:11.000Z</time>
      </trkpt>
      <trkpt lat="46.2384" lon="4.56762">
        <ele>497.39999389648</ele>
        <time>2019-02-18T14:27:17.000Z</time>
      </trkpt>
      <trkpt lat="46.23841" lon="4.56748">
        <ele>498.20001220703</ele>
        <time>2019-02-18T14:27:21.000Z</time>
      </trkpt>
      <trkpt lat="46.23841" lon="4.56734">
        <ele>499.20001220703</ele>
        <time>2019-02-18T14:27:25.000Z</time>
      </trkpt>
      <trkpt lat="46.23841" lon="4.56731">
        <ele>499.39999389648</ele>
        <time>2019-02-18T14:27:26.000Z</time>
      </trkpt>
      <trkpt lat="46.23839" lon="4.56713">
        <ele>499.39999389648</ele>
        <time>2019-02-18T14:27:31.000Z</time>
      </trkpt>
      <trkpt lat="46.23838" lon="4.56705">
        <ele>499.20001220703</ele>
        <time>2019-02-18T14:27:33.000Z</time>
      </trkpt>
      <trkpt lat="46.23837" lon="4.56698">
        <ele>499</ele>
        <time>2019-02-18T14:27:35.000Z</time>
      </trkpt>
      <trkpt lat="46.23834" lon="4.56686">
        <ele>499</ele>
        <time>2019-02-18T14:27:38.000Z</time>
      </trkpt>
      <trkpt lat="46.23831" lon="4.56676">
        <ele>498.79998779297</ele>
        <time>2019-02-18T14:27:41.000Z</time>
      </trkpt>
      <trkpt lat="46.23827" lon="4.56665">
        <ele>498.20001220703</ele>
        <time>2019-02-18T14:27:44.000Z</time>
      </trkpt>
      <trkpt lat="46.23822" lon="4.56655">
        <ele>497.60000610352</ele>
        <time>2019-02-18T14:27:47.000Z</time>
      </trkpt>
      <trkpt lat="46.23819" lon="4.56649">
        <ele>497.20001220703</ele>
        <time>2019-02-18T14:27:49.000Z</time>
      </trkpt>
      <trkpt lat="46.23816" lon="4.56644">
        <ele>496.79998779297</ele>
        <time>2019-02-18T14:27:51.000Z</time>
      </trkpt>
      <trkpt lat="46.23809" lon="4.56634">
        <ele>496.60000610352</ele>
        <time>2019-02-18T14:27:55.000Z</time>
      </trkpt>
      <trkpt lat="46.23801" lon="4.56625">
        <ele>497.20001220703</ele>
        <time>2019-02-18T14:27:59.000Z</time>
      </trkpt>
      <trkpt lat="46.23796" lon="4.56618">
        <ele>497.79998779297</ele>
        <time>2019-02-18T14:28:02.000Z</time>
      </trkpt>
      <trkpt lat="46.23783" lon="4.56604">
        <ele>501.39999389648</ele>
        <time>2019-02-18T14:28:09.000Z</time>
      </trkpt>
      <trkpt lat="46.23776" lon="4.56594">
        <ele>504</ele>
        <time>2019-02-18T14:28:13.000Z</time>
      </trkpt>
      <trkpt lat="46.23772" lon="4.5659">
        <ele>505</ele>
        <time>2019-02-18T14:28:15.000Z</time>
      </trkpt>
      <trkpt lat="46.23769" lon="4.56586">
        <ele>506</ele>
        <time>2019-02-18T14:28:17.000Z</time>
      </trkpt>
      <trkpt lat="46.23765" lon="4.56581">
        <ele>507.20001220703</ele>
        <time>2019-02-18T14:28:19.000Z</time>
      </trkpt>
      <trkpt lat="46.23762" lon="4.56577">
        <ele>508.20001220703</ele>
        <time>2019-02-18T14:28:21.000Z</time>
      </trkpt>
      <trkpt lat="46.23752" lon="4.56566">
        <ele>511</ele>
        <time>2019-02-18T14:28:26.000Z</time>
      </trkpt>
      <trkpt lat="46.2375" lon="4.56565">
        <ele>511.39999389648</ele>
        <time>2019-02-18T14:28:27.000Z</time>
      </trkpt>
      <trkpt lat="46.23749" lon="4.56563">
        <ele>511.79998779297</ele>
        <time>2019-02-18T14:28:28.000Z</time>
      </trkpt>
      <trkpt lat="46.2374" lon="4.56551">
        <ele>515</ele>
        <time>2019-02-18T14:28:33.000Z</time>
      </trkpt>
      <trkpt lat="46.23733" lon="4.56544">
        <ele>516.59997558594</ele>
        <time>2019-02-18T14:28:36.000Z</time>
      </trkpt>
      <trkpt lat="46.2373" lon="4.5654">
        <ele>517.79998779297</ele>
        <time>2019-02-18T14:28:38.000Z</time>
      </trkpt>
      <trkpt lat="46.23724" lon="4.56532">
        <ele>517.79998779297</ele>
        <time>2019-02-18T14:28:41.000Z</time>
      </trkpt>
      <trkpt lat="46.23716" lon="4.56521">
        <ele>517</ele>
        <time>2019-02-18T14:28:45.000Z</time>
      </trkpt>
      <trkpt lat="46.23714" lon="4.56518">
        <ele>517</ele>
        <time>2019-02-18T14:28:46.000Z</time>
      </trkpt>
      <trkpt lat="46.23711" lon="4.56513">
        <ele>516.79998779297</ele>
        <time>2019-02-18T14:28:48.000Z</time>
      </trkpt>
      <trkpt lat="46.23706" lon="4.56504">
        <ele>516.40002441406</ele>
        <time>2019-02-18T14:28:51.000Z</time>
      </trkpt>
      <trkpt lat="46.23702" lon="4.56498">
        <ele>516</ele>
        <time>2019-02-18T14:28:53.000Z</time>
      </trkpt>
      <trkpt lat="46.23701" lon="4.56495">
        <ele>515.79998779297</ele>
        <time>2019-02-18T14:28:54.000Z</time>
      </trkpt>
      <trkpt lat="46.23696" lon="4.56486">
        <ele>515.59997558594</ele>
        <time>2019-02-18T14:28:57.000Z</time>
      </trkpt>
      <trkpt lat="46.23693" lon="4.5648">
        <ele>515.40002441406</ele>
        <time>2019-02-18T14:28:59.000Z</time>
      </trkpt>
      <trkpt lat="46.23688" lon="4.56471">
        <ele>515</ele>
        <time>2019-02-18T14:29:02.000Z</time>
      </trkpt>
      <trkpt lat="46.23683" lon="4.56462">
        <ele>514.59997558594</ele>
        <time>2019-02-18T14:29:05.000Z</time>
      </trkpt>
      <trkpt lat="46.23681" lon="4.56458">
        <ele>514.59997558594</ele>
        <time>2019-02-18T14:29:06.000Z</time>
      </trkpt>
      <trkpt lat="46.23675" lon="4.56441">
        <ele>514.40002441406</ele>
        <time>2019-02-18T14:29:11.000Z</time>
      </trkpt>
      <trkpt lat="46.23674" lon="4.56438">
        <ele>514.40002441406</ele>
        <time>2019-02-18T14:29:12.000Z</time>
      </trkpt>
      <trkpt lat="46.23669" lon="4.5642">
        <ele>514.59997558594</ele>
        <time>2019-02-18T14:29:17.000Z</time>
      </trkpt>
      <trkpt lat="46.23668" lon="4.56412">
        <ele>514.79998779297</ele>
        <time>2019-02-18T14:29:19.000Z</time>
      </trkpt>
      <trkpt lat="46.23667" lon="4.56404">
        <ele>515.20001220703</ele>
        <time>2019-02-18T14:29:21.000Z</time>
      </trkpt>
      <trkpt lat="46.23664" lon="4.56377">
        <ele>516.59997558594</ele>
        <time>2019-02-18T14:29:28.000Z</time>
      </trkpt>
      <trkpt lat="46.23662" lon="4.56369">
        <ele>517</ele>
        <time>2019-02-18T14:29:30.000Z</time>
      </trkpt>
      <trkpt lat="46.23659" lon="4.5635">
        <ele>517.40002441406</ele>
        <time>2019-02-18T14:29:35.000Z</time>
      </trkpt>
      <trkpt lat="46.23658" lon="4.56343">
        <ele>517.59997558594</ele>
        <time>2019-02-18T14:29:37.000Z</time>
      </trkpt>
      <trkpt lat="46.23655" lon="4.56321">
        <ele>518.59997558594</ele>
        <time>2019-02-18T14:29:43.000Z</time>
      </trkpt>
      <trkpt lat="46.23655" lon="4.56317">
        <ele>518.79998779297</ele>
        <time>2019-02-18T14:29:44.000Z</time>
      </trkpt>
      <trkpt lat="46.23651" lon="4.56291">
        <ele>519.79998779297</ele>
        <time>2019-02-18T14:29:51.000Z</time>
      </trkpt>
      <trkpt lat="46.23649" lon="4.56276">
        <ele>521.40002441406</ele>
        <time>2019-02-18T14:29:55.000Z</time>
      </trkpt>
      <trkpt lat="46.23647" lon="4.56266">
        <ele>522.79998779297</ele>
        <time>2019-02-18T14:29:58.000Z</time>
      </trkpt>
      <trkpt lat="46.23638" lon="4.56244">
        <ele>526</ele>
        <time>2019-02-18T14:30:05.000Z</time>
      </trkpt>
      <trkpt lat="46.23625" lon="4.5623">
        <ele>527.20001220703</ele>
        <time>2019-02-18T14:30:11.000Z</time>
      </trkpt>
      <trkpt lat="46.23623" lon="4.56228">
        <ele>527.20001220703</ele>
        <time>2019-02-18T14:30:12.000Z</time>
      </trkpt>
      <trkpt lat="46.23609" lon="4.56223">
        <ele>526.79998779297</ele>
        <time>2019-02-18T14:30:17.000Z</time>
      </trkpt>
      <trkpt lat="46.23604" lon="4.56221">
        <ele>526.59997558594</ele>
        <time>2019-02-18T14:30:19.000Z</time>
      </trkpt>
      <trkpt lat="46.23582" lon="4.56215">
        <ele>525.59997558594</ele>
        <time>2019-02-18T14:30:27.000Z</time>
      </trkpt>
      <trkpt lat="46.23574" lon="4.56212">
        <ele>525.20001220703</ele>
        <time>2019-02-18T14:30:30.000Z</time>
      </trkpt>
      <trkpt lat="46.23556" lon="4.56204">
        <ele>524.59997558594</ele>
        <time>2019-02-18T14:30:37.000Z</time>
      </trkpt>
      <trkpt lat="46.23537" lon="4.56189">
        <ele>525.20001220703</ele>
        <time>2019-02-18T14:30:45.000Z</time>
      </trkpt>
      <trkpt lat="46.23531" lon="4.56183">
        <ele>525.40002441406</ele>
        <time>2019-02-18T14:30:48.000Z</time>
      </trkpt>
      <trkpt lat="46.23522" lon="4.5617">
        <ele>526.20001220703</ele>
        <time>2019-02-18T14:30:53.000Z</time>
      </trkpt>
      <trkpt lat="46.23517" lon="4.56162">
        <ele>526.79998779297</ele>
        <time>2019-02-18T14:30:56.000Z</time>
      </trkpt>
      <trkpt lat="46.23509" lon="4.56152">
        <ele>527.40002441406</ele>
        <time>2019-02-18T14:31:00.000Z</time>
      </trkpt>
      <trkpt lat="46.235" lon="4.56139">
        <ele>528.20001220703</ele>
        <time>2019-02-18T14:31:05.000Z</time>
      </trkpt>
      <trkpt lat="46.23494" lon="4.56132">
        <ele>528.59997558594</ele>
        <time>2019-02-18T14:31:08.000Z</time>
      </trkpt>
      <trkpt lat="46.23489" lon="4.56128">
        <ele>528.59997558594</ele>
        <time>2019-02-18T14:31:10.000Z</time>
      </trkpt>
      <trkpt lat="46.23475" lon="4.56119">
        <ele>528.59997558594</ele>
        <time>2019-02-18T14:31:16.000Z</time>
      </trkpt>
      <trkpt lat="46.23473" lon="4.56118">
        <ele>528.79998779297</ele>
        <time>2019-02-18T14:31:17.000Z</time>
      </trkpt>
      <trkpt lat="46.2346" lon="4.56113">
        <ele>528.79998779297</ele>
        <time>2019-02-18T14:31:22.000Z</time>
      </trkpt>
      <trkpt lat="46.23458" lon="4.56112">
        <ele>528.79998779297</ele>
        <time>2019-02-18T14:31:23.000Z</time>
      </trkpt>
      <trkpt lat="46.23447" lon="4.56108">
        <ele>528.79998779297</ele>
        <time>2019-02-18T14:31:27.000Z</time>
      </trkpt>
      <trkpt lat="46.23439" lon="4.56106">
        <ele>528.59997558594</ele>
        <time>2019-02-18T14:31:30.000Z</time>
      </trkpt>
      <trkpt lat="46.23431" lon="4.56104">
        <ele>528.59997558594</ele>
        <time>2019-02-18T14:31:33.000Z</time>
      </trkpt>
      <trkpt lat="46.23418" lon="4.56097">
        <ele>528.79998779297</ele>
        <time>2019-02-18T14:31:38.000Z</time>
      </trkpt>
      <trkpt lat="46.23416" lon="4.56096">
        <ele>528.79998779297</ele>
        <time>2019-02-18T14:31:39.000Z</time>
      </trkpt>
      <trkpt lat="46.23402" lon="4.56085">
        <ele>529.59997558594</ele>
        <time>2019-02-18T14:31:45.000Z</time>
      </trkpt>
      <trkpt lat="46.23399" lon="4.56083">
        <ele>529.79998779297</ele>
        <time>2019-02-18T14:31:46.000Z</time>
      </trkpt>
      <trkpt lat="46.23392" lon="4.56073">
        <ele>530.20001220703</ele>
        <time>2019-02-18T14:31:50.000Z</time>
      </trkpt>
      <trkpt lat="46.2339" lon="4.56071">
        <ele>530.20001220703</ele>
        <time>2019-02-18T14:31:51.000Z</time>
      </trkpt>
      <trkpt lat="46.2338" lon="4.56052">
        <ele>531.20001220703</ele>
        <time>2019-02-18T14:31:57.000Z</time>
      </trkpt>
      <trkpt lat="46.23378" lon="4.56049">
        <ele>531.40002441406</ele>
        <time>2019-02-18T14:31:58.000Z</time>
      </trkpt>
      <trkpt lat="46.23371" lon="4.5603">
        <ele>532.79998779297</ele>
        <time>2019-02-18T14:32:03.000Z</time>
      </trkpt>
      <trkpt lat="46.2337" lon="4.56026">
        <ele>533</ele>
        <time>2019-02-18T14:32:04.000Z</time>
      </trkpt>
      <trkpt lat="46.23362" lon="4.56001">
        <ele>534.79998779297</ele>
        <time>2019-02-18T14:32:11.000Z</time>
      </trkpt>
      <trkpt lat="46.23352" lon="4.5597">
        <ele>538</ele>
        <time>2019-02-18T14:32:20.000Z</time>
      </trkpt>
      <trkpt lat="46.23351" lon="4.55966">
        <ele>538.40002441406</ele>
        <time>2019-02-18T14:32:21.000Z</time>
      </trkpt>
      <trkpt lat="46.23344" lon="4.55942">
        <ele>540.20001220703</ele>
        <time>2019-02-18T14:32:28.000Z</time>
      </trkpt>
      <trkpt lat="46.23343" lon="4.55938">
        <ele>540.40002441406</ele>
        <time>2019-02-18T14:32:29.000Z</time>
      </trkpt>
      <trkpt lat="46.23336" lon="4.55917">
        <ele>541</ele>
        <time>2019-02-18T14:32:35.000Z</time>
      </trkpt>
      <trkpt lat="46.23335" lon="4.55914">
        <ele>541.20001220703</ele>
        <time>2019-02-18T14:32:36.000Z</time>
      </trkpt>
      <trkpt lat="46.23326" lon="4.55884">
        <ele>542.20001220703</ele>
        <time>2019-02-18T14:32:45.000Z</time>
      </trkpt>
      <trkpt lat="46.23325" lon="4.55881">
        <ele>542.20001220703</ele>
        <time>2019-02-18T14:32:46.000Z</time>
      </trkpt>
      <trkpt lat="46.23318" lon="4.55857">
        <ele>542.20001220703</ele>
        <time>2019-02-18T14:32:53.000Z</time>
      </trkpt>
      <trkpt lat="46.23315" lon="4.55839">
        <ele>542</ele>
        <time>2019-02-18T14:32:58.000Z</time>
      </trkpt>
      <trkpt lat="46.23315" lon="4.55829">
        <ele>542</ele>
        <time>2019-02-18T14:33:01.000Z</time>
      </trkpt>
      <trkpt lat="46.23314" lon="4.55803">
        <ele>542.20001220703</ele>
        <time>2019-02-18T14:33:08.000Z</time>
      </trkpt>
      <trkpt lat="46.23314" lon="4.55799">
        <ele>542.20001220703</ele>
        <time>2019-02-18T14:33:09.000Z</time>
      </trkpt>
      <trkpt lat="46.23316" lon="4.55759">
        <ele>542</ele>
        <time>2019-02-18T14:33:20.000Z</time>
      </trkpt>
      <trkpt lat="46.23317" lon="4.55756">
        <ele>542</ele>
        <time>2019-02-18T14:33:21.000Z</time>
      </trkpt>
      <trkpt lat="46.23323" lon="4.55731">
        <ele>542.59997558594</ele>
        <time>2019-02-18T14:33:28.000Z</time>
      </trkpt>
      <trkpt lat="46.23325" lon="4.55724">
        <ele>543</ele>
        <time>2019-02-18T14:33:30.000Z</time>
      </trkpt>
      <trkpt lat="46.2333" lon="4.55711">
        <ele>543.59997558594</ele>
        <time>2019-02-18T14:33:34.000Z</time>
      </trkpt>
      <trkpt lat="46.23332" lon="4.55707">
        <ele>543.79998779297</ele>
        <time>2019-02-18T14:33:35.000Z</time>
      </trkpt>
      <trkpt lat="46.23341" lon="4.5568">
        <ele>545.79998779297</ele>
        <time>2019-02-18T14:33:43.000Z</time>
      </trkpt>
      <trkpt lat="46.23352" lon="4.55654">
        <ele>548.20001220703</ele>
        <time>2019-02-18T14:33:51.000Z</time>
      </trkpt>
      <trkpt lat="46.23354" lon="4.55651">
        <ele>548.40002441406</ele>
        <time>2019-02-18T14:33:52.000Z</time>
      </trkpt>
      <trkpt lat="46.23364" lon="4.55627">
        <ele>550.20001220703</ele>
        <time>2019-02-18T14:34:00.000Z</time>
      </trkpt>
      <trkpt lat="46.23365" lon="4.55624">
        <ele>550.40002441406</ele>
        <time>2019-02-18T14:34:01.000Z</time>
      </trkpt>
      <trkpt lat="46.2337" lon="4.55611">
        <ele>552</ele>
        <time>2019-02-18T14:34:05.000Z</time>
      </trkpt>
      <trkpt lat="46.23377" lon="4.55591">
        <ele>554.20001220703</ele>
        <time>2019-02-18T14:34:11.000Z</time>
      </trkpt>
      <trkpt lat="46.23382" lon="4.55578">
        <ele>555</ele>
        <time>2019-02-18T14:34:15.000Z</time>
      </trkpt>
      <trkpt lat="46.23384" lon="4.55567">
        <ele>555.40002441406</ele>
        <time>2019-02-18T14:34:18.000Z</time>
      </trkpt>
      <trkpt lat="46.23385" lon="4.55564">
        <ele>555.40002441406</ele>
        <time>2019-02-18T14:34:19.000Z</time>
      </trkpt>
      <trkpt lat="46.23388" lon="4.55539">
        <ele>556</ele>
        <time>2019-02-18T14:34:26.000Z</time>
      </trkpt>
      <trkpt lat="46.23388" lon="4.55531">
        <ele>556.59997558594</ele>
        <time>2019-02-18T14:34:28.000Z</time>
      </trkpt>
      <trkpt lat="46.23388" lon="4.55509">
        <ele>558.20001220703</ele>
        <time>2019-02-18T14:34:34.000Z</time>
      </trkpt>
      <trkpt lat="46.23386" lon="4.55491">
        <ele>559.20001220703</ele>
        <time>2019-02-18T14:34:39.000Z</time>
      </trkpt>
      <trkpt lat="46.23385" lon="4.55481">
        <ele>559.79998779297</ele>
        <time>2019-02-18T14:34:42.000Z</time>
      </trkpt>
      <trkpt lat="46.23381" lon="4.55466">
        <ele>560.40002441406</ele>
        <time>2019-02-18T14:34:46.000Z</time>
      </trkpt>
      <trkpt lat="46.23379" lon="4.55453">
        <ele>561</ele>
        <time>2019-02-18T14:34:50.000Z</time>
      </trkpt>
      <trkpt lat="46.23376" lon="4.55446">
        <ele>561.79998779297</ele>
        <time>2019-02-18T14:34:52.000Z</time>
      </trkpt>
      <trkpt lat="46.23369" lon="4.55427">
        <ele>564</ele>
        <time>2019-02-18T14:34:58.000Z</time>
      </trkpt>
      <trkpt lat="46.23364" lon="4.55415">
        <ele>565.20001220703</ele>
        <time>2019-02-18T14:35:02.000Z</time>
      </trkpt>
      <trkpt lat="46.23357" lon="4.55404">
        <ele>566.40002441406</ele>
        <time>2019-02-18T14:35:06.000Z</time>
      </trkpt>
      <trkpt lat="46.23353" lon="4.55399">
        <ele>567</ele>
        <time>2019-02-18T14:35:08.000Z</time>
      </trkpt>
      <trkpt lat="46.23341" lon="4.55386">
        <ele>568.20001220703</ele>
        <time>2019-02-18T14:35:14.000Z</time>
      </trkpt>
      <trkpt lat="46.23337" lon="4.55382">
        <ele>568.40002441406</ele>
        <time>2019-02-18T14:35:16.000Z</time>
      </trkpt>
      <trkpt lat="46.23317" lon="4.55368">
        <ele>569.20001220703</ele>
        <time>2019-02-18T14:35:24.000Z</time>
      </trkpt>
      <trkpt lat="46.23307" lon="4.55362">
        <ele>569.40002441406</ele>
        <time>2019-02-18T14:35:28.000Z</time>
      </trkpt>
      <trkpt lat="46.23296" lon="4.55358">
        <ele>569</ele>
        <time>2019-02-18T14:35:32.000Z</time>
      </trkpt>
      <trkpt lat="46.23285" lon="4.55353">
        <ele>569</ele>
        <time>2019-02-18T14:35:36.000Z</time>
      </trkpt>
      <trkpt lat="46.23277" lon="4.55349">
        <ele>569</ele>
        <time>2019-02-18T14:35:39.000Z</time>
      </trkpt>
      <trkpt lat="46.23272" lon="4.55347">
        <ele>568.79998779297</ele>
        <time>2019-02-18T14:35:41.000Z</time>
      </trkpt>
      <trkpt lat="46.23262" lon="4.55341">
        <ele>569</ele>
        <time>2019-02-18T14:35:45.000Z</time>
      </trkpt>
      <trkpt lat="46.23257" lon="4.55337">
        <ele>569</ele>
        <time>2019-02-18T14:35:47.000Z</time>
      </trkpt>
      <trkpt lat="46.23248" lon="4.55329">
        <ele>569.40002441406</ele>
        <time>2019-02-18T14:35:51.000Z</time>
      </trkpt>
      <trkpt lat="46.23246" lon="4.55327">
        <ele>569.59997558594</ele>
        <time>2019-02-18T14:35:52.000Z</time>
      </trkpt>
      <trkpt lat="46.23237" lon="4.55313">
        <ele>570.79998779297</ele>
        <time>2019-02-18T14:35:57.000Z</time>
      </trkpt>
      <trkpt lat="46.23232" lon="4.55304">
        <ele>571.59997558594</ele>
        <time>2019-02-18T14:36:00.000Z</time>
      </trkpt>
      <trkpt lat="46.23231" lon="4.553">
        <ele>572</ele>
        <time>2019-02-18T14:36:01.000Z</time>
      </trkpt>
      <trkpt lat="46.23226" lon="4.55274">
        <ele>574.59997558594</ele>
        <time>2019-02-18T14:36:08.000Z</time>
      </trkpt>
      <trkpt lat="46.23224" lon="4.55263">
        <ele>575.40002441406</ele>
        <time>2019-02-18T14:36:11.000Z</time>
      </trkpt>
      <trkpt lat="46.23223" lon="4.55252">
        <ele>576.20001220703</ele>
        <time>2019-02-18T14:36:14.000Z</time>
      </trkpt>
      <trkpt lat="46.23219" lon="4.55226">
        <ele>578.20001220703</ele>
        <time>2019-02-18T14:36:21.000Z</time>
      </trkpt>
      <trkpt lat="46.23213" lon="4.55206">
        <ele>579.40002441406</ele>
        <time>2019-02-18T14:36:27.000Z</time>
      </trkpt>
      <trkpt lat="46.23204" lon="4.55187">
        <ele>581</ele>
        <time>2019-02-18T14:36:33.000Z</time>
      </trkpt>
      <trkpt lat="46.23203" lon="4.55185">
        <ele>581.20001220703</ele>
        <time>2019-02-18T14:36:34.000Z</time>
      </trkpt>
      <trkpt lat="46.23187" lon="4.55167">
        <ele>582.40002441406</ele>
        <time>2019-02-18T14:36:42.000Z</time>
      </trkpt>
      <trkpt lat="46.23179" lon="4.55162">
        <ele>582.59997558594</ele>
        <time>2019-02-18T14:36:45.000Z</time>
      </trkpt>
      <trkpt lat="46.23169" lon="4.55159">
        <ele>582.20001220703</ele>
        <time>2019-02-18T14:36:49.000Z</time>
      </trkpt>
      <trkpt lat="46.23154" lon="4.55159">
        <ele>581.20001220703</ele>
        <time>2019-02-18T14:36:54.000Z</time>
      </trkpt>
      <trkpt lat="46.23149" lon="4.55162">
        <ele>580.40002441406</ele>
        <time>2019-02-18T14:36:56.000Z</time>
      </trkpt>
      <trkpt lat="46.23141" lon="4.55166">
        <ele>580.20001220703</ele>
        <time>2019-02-18T14:36:59.000Z</time>
      </trkpt>
      <trkpt lat="46.23131" lon="4.55173">
        <ele>580.59997558594</ele>
        <time>2019-02-18T14:37:03.000Z</time>
      </trkpt>
      <trkpt lat="46.23124" lon="4.55179">
        <ele>580.79998779297</ele>
        <time>2019-02-18T14:37:06.000Z</time>
      </trkpt>
      <trkpt lat="46.23113" lon="4.5519">
        <ele>580</ele>
        <time>2019-02-18T14:37:11.000Z</time>
      </trkpt>
      <trkpt lat="46.23111" lon="4.55192">
        <ele>579.79998779297</ele>
        <time>2019-02-18T14:37:12.000Z</time>
      </trkpt>
      <trkpt lat="46.23101" lon="4.55201">
        <ele>579.20001220703</ele>
        <time>2019-02-18T14:37:17.000Z</time>
      </trkpt>
      <trkpt lat="46.23088" lon="4.55215">
        <ele>578.40002441406</ele>
        <time>2019-02-18T14:37:23.000Z</time>
      </trkpt>
      <trkpt lat="46.23084" lon="4.55221">
        <ele>578</ele>
        <time>2019-02-18T14:37:25.000Z</time>
      </trkpt>
      <trkpt lat="46.23069" lon="4.55238">
        <ele>577</ele>
        <time>2019-02-18T14:37:32.000Z</time>
      </trkpt>
      <trkpt lat="46.23067" lon="4.5524">
        <ele>577</ele>
        <time>2019-02-18T14:37:33.000Z</time>
      </trkpt>
      <trkpt lat="46.2306" lon="4.55246">
        <ele>576.79998779297</ele>
        <time>2019-02-18T14:37:36.000Z</time>
      </trkpt>
      <trkpt lat="46.2305" lon="4.55253">
        <ele>576.59997558594</ele>
        <time>2019-02-18T14:37:40.000Z</time>
      </trkpt>
      <trkpt lat="46.23039" lon="4.55258">
        <ele>576.59997558594</ele>
        <time>2019-02-18T14:37:44.000Z</time>
      </trkpt>
      <trkpt lat="46.23026" lon="4.55262">
        <ele>577.79998779297</ele>
        <time>2019-02-18T14:37:49.000Z</time>
      </trkpt>
      <trkpt lat="46.23021" lon="4.55262">
        <ele>578.59997558594</ele>
        <time>2019-02-18T14:37:51.000Z</time>
      </trkpt>
      <trkpt lat="46.23007" lon="4.55262">
        <ele>580.40002441406</ele>
        <time>2019-02-18T14:37:56.000Z</time>
      </trkpt>
      <trkpt lat="46.23005" lon="4.55261">
        <ele>580.79998779297</ele>
        <time>2019-02-18T14:37:57.000Z</time>
      </trkpt>
      <trkpt lat="46.22982" lon="4.55257">
        <ele>584.40002441406</ele>
        <time>2019-02-18T14:38:06.000Z</time>
      </trkpt>
      <trkpt lat="46.22962" lon="4.55245">
        <ele>585</ele>
        <time>2019-02-18T14:38:14.000Z</time>
      </trkpt>
      <trkpt lat="46.22956" lon="4.55237">
        <ele>585.40002441406</ele>
        <time>2019-02-18T14:38:17.000Z</time>
      </trkpt>
      <trkpt lat="46.22951" lon="4.55227">
        <ele>586.20001220703</ele>
        <time>2019-02-18T14:38:20.000Z</time>
      </trkpt>
      <trkpt lat="46.22948" lon="4.55221">
        <ele>586.59997558594</ele>
        <time>2019-02-18T14:38:22.000Z</time>
      </trkpt>
      <trkpt lat="46.22943" lon="4.55203">
        <ele>588</ele>
        <time>2019-02-18T14:38:27.000Z</time>
      </trkpt>
      <trkpt lat="46.2294" lon="4.55191">
        <ele>590.20001220703</ele>
        <time>2019-02-18T14:38:30.000Z</time>
      </trkpt>
      <trkpt lat="46.22934" lon="4.55158">
        <ele>596</ele>
        <time>2019-02-18T14:38:39.000Z</time>
      </trkpt>
      <trkpt lat="46.22932" lon="4.55144">
        <ele>598.20001220703</ele>
        <time>2019-02-18T14:38:43.000Z</time>
      </trkpt>
      <trkpt lat="46.2293" lon="4.55133">
        <ele>599.79998779297</ele>
        <time>2019-02-18T14:38:46.000Z</time>
      </trkpt>
      <trkpt lat="46.22924" lon="4.55117">
        <ele>602</ele>
        <time>2019-02-18T14:38:51.000Z</time>
      </trkpt>
      <trkpt lat="46.22923" lon="4.55113">
        <ele>602.40002441406</ele>
        <time>2019-02-18T14:38:52.000Z</time>
      </trkpt>
      <trkpt lat="46.22912" lon="4.55101">
        <ele>603.79998779297</ele>
        <time>2019-02-18T14:38:58.000Z</time>
      </trkpt>
      <trkpt lat="46.22907" lon="4.55097">
        <ele>604.20001220703</ele>
        <time>2019-02-18T14:39:00.000Z</time>
      </trkpt>
      <trkpt lat="46.22895" lon="4.55092">
        <ele>604.79998779297</ele>
        <time>2019-02-18T14:39:04.000Z</time>
      </trkpt>
      <trkpt lat="46.22877" lon="4.55086">
        <ele>605.59997558594</ele>
        <time>2019-02-18T14:39:10.000Z</time>
      </trkpt>
      <trkpt lat="46.22875" lon="4.55085">
        <ele>605.79998779297</ele>
        <time>2019-02-18T14:39:11.000Z</time>
      </trkpt>
      <trkpt lat="46.22868" lon="4.55086">
        <ele>605.79998779297</ele>
        <time>2019-02-18T14:39:14.000Z</time>
      </trkpt>
      <trkpt lat="46.22866" lon="4.55086">
        <ele>605.79998779297</ele>
        <time>2019-02-18T14:39:15.000Z</time>
      </trkpt>
      <trkpt lat="46.22861" lon="4.55085">
        <ele>605.79998779297</ele>
        <time>2019-02-18T14:39:17.000Z</time>
      </trkpt>
      <trkpt lat="46.22852" lon="4.55086">
        <ele>605.59997558594</ele>
        <time>2019-02-18T14:39:20.000Z</time>
      </trkpt>
      <trkpt lat="46.22841" lon="4.55085">
        <ele>605.40002441406</ele>
        <time>2019-02-18T14:39:25.000Z</time>
      </trkpt>
      <trkpt lat="46.22826" lon="4.55081">
        <ele>605.59997558594</ele>
        <time>2019-02-18T14:39:31.000Z</time>
      </trkpt>
      <trkpt lat="46.22819" lon="4.5508">
        <ele>605.59997558594</ele>
        <time>2019-02-18T14:39:34.000Z</time>
      </trkpt>
      <trkpt lat="46.22814" lon="4.5508">
        <ele>605.40002441406</ele>
        <time>2019-02-18T14:39:36.000Z</time>
      </trkpt>
      <trkpt lat="46.22804" lon="4.55075">
        <ele>605.59997558594</ele>
        <time>2019-02-18T14:39:40.000Z</time>
      </trkpt>
      <trkpt lat="46.22798" lon="4.55072">
        <ele>605.79998779297</ele>
        <time>2019-02-18T14:39:42.000Z</time>
      </trkpt>
      <trkpt lat="46.22788" lon="4.55067">
        <ele>605.79998779297</ele>
        <time>2019-02-18T14:39:46.000Z</time>
      </trkpt>
      <trkpt lat="46.22785" lon="4.55066">
        <ele>605.79998779297</ele>
        <time>2019-02-18T14:39:47.000Z</time>
      </trkpt>
      <trkpt lat="46.22769" lon="4.55051">
        <ele>607</ele>
        <time>2019-02-18T14:39:55.000Z</time>
      </trkpt>
      <trkpt lat="46.22759" lon="4.5504">
        <ele>608</ele>
        <time>2019-02-18T14:40:01.000Z</time>
      </trkpt>
      <trkpt lat="46.22755" lon="4.55035">
        <ele>608.40002441406</ele>
        <time>2019-02-18T14:40:03.000Z</time>
      </trkpt>
      <trkpt lat="46.22749" lon="4.55028">
        <ele>609</ele>
        <time>2019-02-18T14:40:06.000Z</time>
      </trkpt>
      <trkpt lat="46.22743" lon="4.55018">
        <ele>610</ele>
        <time>2019-02-18T14:40:10.000Z</time>
      </trkpt>
      <trkpt lat="46.22733" lon="4.54998">
        <ele>612</ele>
        <time>2019-02-18T14:40:17.000Z</time>
      </trkpt>
      <trkpt lat="46.2272" lon="4.5498">
        <ele>613.79998779297</ele>
        <time>2019-02-18T14:40:24.000Z</time>
      </trkpt>
      <trkpt lat="46.22705" lon="4.54968">
        <ele>614.79998779297</ele>
        <time>2019-02-18T14:40:31.000Z</time>
      </trkpt>
      <trkpt lat="46.22695" lon="4.54962">
        <ele>615.20001220703</ele>
        <time>2019-02-18T14:40:35.000Z</time>
      </trkpt>
      <trkpt lat="46.2269" lon="4.5496">
        <ele>615.40002441406</ele>
        <time>2019-02-18T14:40:37.000Z</time>
      </trkpt>
      <trkpt lat="46.22682" lon="4.54958">
        <ele>615.40002441406</ele>
        <time>2019-02-18T14:40:40.000Z</time>
      </trkpt>
      <trkpt lat="46.2267" lon="4.54955">
        <ele>615.40002441406</ele>
        <time>2019-02-18T14:40:44.000Z</time>
      </trkpt>
      <trkpt lat="46.22656" lon="4.54953">
        <ele>615.20001220703</ele>
        <time>2019-02-18T14:40:49.000Z</time>
      </trkpt>
      <trkpt lat="46.22644" lon="4.54952">
        <ele>614.59997558594</ele>
        <time>2019-02-18T14:40:53.000Z</time>
      </trkpt>
      <trkpt lat="46.22642" lon="4.54952">
        <ele>614.79998779297</ele>
        <time>2019-02-18T14:40:54.000Z</time>
      </trkpt>
      <trkpt lat="46.22625" lon="4.5495">
        <ele>614.79998779297</ele>
        <time>2019-02-18T14:41:00.000Z</time>
      </trkpt>
      <trkpt lat="46.22622" lon="4.54949">
        <ele>614.79998779297</ele>
        <time>2019-02-18T14:41:01.000Z</time>
      </trkpt>
      <trkpt lat="46.22604" lon="4.54946">
        <ele>615</ele>
        <time>2019-02-18T14:41:08.000Z</time>
      </trkpt>
      <trkpt lat="46.22602" lon="4.54945">
        <ele>615.20001220703</ele>
        <time>2019-02-18T14:41:09.000Z</time>
      </trkpt>
      <trkpt lat="46.22586" lon="4.54942">
        <ele>615.40002441406</ele>
        <time>2019-02-18T14:41:15.000Z</time>
      </trkpt>
      <trkpt lat="46.22566" lon="4.54934">
        <ele>616.79998779297</ele>
        <time>2019-02-18T14:41:23.000Z</time>
      </trkpt>
      <trkpt lat="46.22549" lon="4.54923">
        <ele>618.20001220703</ele>
        <time>2019-02-18T14:41:30.000Z</time>
      </trkpt>
      <trkpt lat="46.22546" lon="4.54921">
        <ele>618.40002441406</ele>
        <time>2019-02-18T14:41:31.000Z</time>
      </trkpt>
      <trkpt lat="46.2253" lon="4.54912">
        <ele>619.59997558594</ele>
        <time>2019-02-18T14:41:38.000Z</time>
      </trkpt>
      <trkpt lat="46.22527" lon="4.5491">
        <ele>619.79998779297</ele>
        <time>2019-02-18T14:41:39.000Z</time>
      </trkpt>
      <trkpt lat="46.22509" lon="4.54899">
        <ele>621.20001220703</ele>
        <time>2019-02-18T14:41:47.000Z</time>
      </trkpt>
      <trkpt lat="46.22496" lon="4.54894">
        <ele>621.59997558594</ele>
        <time>2019-02-18T14:41:52.000Z</time>
      </trkpt>
      <trkpt lat="46.22484" lon="4.54891">
        <ele>621.79998779297</ele>
        <time>2019-02-18T14:41:57.000Z</time>
      </trkpt>
      <trkpt lat="46.22482" lon="4.54891">
        <ele>621.79998779297</ele>
        <time>2019-02-18T14:41:58.000Z</time>
      </trkpt>
      <trkpt lat="46.22467" lon="4.5489">
        <ele>621.59997558594</ele>
        <time>2019-02-18T14:42:04.000Z</time>
      </trkpt>
      <trkpt lat="46.22462" lon="4.5489">
        <ele>621.40002441406</ele>
        <time>2019-02-18T14:42:06.000Z</time>
      </trkpt>
      <trkpt lat="46.22449" lon="4.54893">
        <ele>620.79998779297</ele>
        <time>2019-02-18T14:42:11.000Z</time>
      </trkpt>
      <trkpt lat="46.22425" lon="4.54895">
        <ele>619.79998779297</ele>
        <time>2019-02-18T14:42:20.000Z</time>
      </trkpt>
      <trkpt lat="46.22407" lon="4.54897">
        <ele>619.79998779297</ele>
        <time>2019-02-18T14:42:27.000Z</time>
      </trkpt>
      <trkpt lat="46.22402" lon="4.54897">
        <ele>620</ele>
        <time>2019-02-18T14:42:29.000Z</time>
      </trkpt>
      <trkpt lat="46.22394" lon="4.54898">
        <ele>620</ele>
        <time>2019-02-18T14:42:32.000Z</time>
      </trkpt>
      <trkpt lat="46.22386" lon="4.54897">
        <ele>620</ele>
        <time>2019-02-18T14:42:35.000Z</time>
      </trkpt>
      <trkpt lat="46.22365" lon="4.5489">
        <ele>620.79998779297</ele>
        <time>2019-02-18T14:42:43.000Z</time>
      </trkpt>
      <trkpt lat="46.22351" lon="4.54873">
        <ele>622.59997558594</ele>
        <time>2019-02-18T14:42:50.000Z</time>
      </trkpt>
      <trkpt lat="46.22348" lon="4.54867">
        <ele>623.40002441406</ele>
        <time>2019-02-18T14:42:52.000Z</time>
      </trkpt>
      <trkpt lat="46.22342" lon="4.54855">
        <ele>625.40002441406</ele>
        <time>2019-02-18T14:42:56.000Z</time>
      </trkpt>
      <trkpt lat="46.22339" lon="4.54845">
        <ele>627.20001220703</ele>
        <time>2019-02-18T14:42:59.000Z</time>
      </trkpt>
      <trkpt lat="46.22334" lon="4.54832">
        <ele>629.20001220703</ele>
        <time>2019-02-18T14:43:03.000Z</time>
      </trkpt>
      <trkpt lat="46.22331" lon="4.54826">
        <ele>630.20001220703</ele>
        <time>2019-02-18T14:43:05.000Z</time>
      </trkpt>
      <trkpt lat="46.22324" lon="4.54815">
        <ele>632</ele>
        <time>2019-02-18T14:43:09.000Z</time>
      </trkpt>
      <trkpt lat="46.2231" lon="4.54803">
        <ele>633.79998779297</ele>
        <time>2019-02-18T14:43:15.000Z</time>
      </trkpt>
      <trkpt lat="46.22306" lon="4.54799">
        <ele>634.20001220703</ele>
        <time>2019-02-18T14:43:17.000Z</time>
      </trkpt>
      <trkpt lat="46.22288" lon="4.54787">
        <ele>634.59997558594</ele>
        <time>2019-02-18T14:43:24.000Z</time>
      </trkpt>
      <trkpt lat="46.2228" lon="4.54782">
        <ele>635.20001220703</ele>
        <time>2019-02-18T14:43:27.000Z</time>
      </trkpt>
      <trkpt lat="46.22269" lon="4.54772">
        <ele>636.40002441406</ele>
        <time>2019-02-18T14:43:32.000Z</time>
      </trkpt>
      <trkpt lat="46.22258" lon="4.5476">
        <ele>637.59997558594</ele>
        <time>2019-02-18T14:43:37.000Z</time>
      </trkpt>
      <trkpt lat="46.22251" lon="4.54753">
        <ele>638.59997558594</ele>
        <time>2019-02-18T14:43:40.000Z</time>
      </trkpt>
      <trkpt lat="46.22249" lon="4.54751">
        <ele>639</ele>
        <time>2019-02-18T14:43:41.000Z</time>
      </trkpt>
      <trkpt lat="46.22235" lon="4.54741">
        <ele>639.79998779297</ele>
        <time>2019-02-18T14:43:47.000Z</time>
      </trkpt>
      <trkpt lat="46.22222" lon="4.54738">
        <ele>640.20001220703</ele>
        <time>2019-02-18T14:43:52.000Z</time>
      </trkpt>
      <trkpt lat="46.2222" lon="4.54738">
        <ele>640.20001220703</ele>
        <time>2019-02-18T14:43:53.000Z</time>
      </trkpt>
      <trkpt lat="46.22205" lon="4.54743">
        <ele>640</ele>
        <time>2019-02-18T14:43:59.000Z</time>
      </trkpt>
      <trkpt lat="46.22202" lon="4.54745">
        <ele>639.79998779297</ele>
        <time>2019-02-18T14:44:00.000Z</time>
      </trkpt>
      <trkpt lat="46.22183" lon="4.54757">
        <ele>638.59997558594</ele>
        <time>2019-02-18T14:44:08.000Z</time>
      </trkpt>
      <trkpt lat="46.2218" lon="4.54758">
        <ele>638.59997558594</ele>
        <time>2019-02-18T14:44:09.000Z</time>
      </trkpt>
      <trkpt lat="46.22162" lon="4.54762">
        <ele>639</ele>
        <time>2019-02-18T14:44:16.000Z</time>
      </trkpt>
      <trkpt lat="46.22146" lon="4.54761">
        <ele>640</ele>
        <time>2019-02-18T14:44:21.000Z</time>
      </trkpt>
      <trkpt lat="46.2214" lon="4.54761">
        <ele>640.59997558594</ele>
        <time>2019-02-18T14:44:23.000Z</time>
      </trkpt>
      <trkpt lat="46.22128" lon="4.54759">
        <ele>642.20001220703</ele>
        <time>2019-02-18T14:44:27.000Z</time>
      </trkpt>
      <trkpt lat="46.22122" lon="4.54759">
        <ele>642.79998779297</ele>
        <time>2019-02-18T14:44:29.000Z</time>
      </trkpt>
      <trkpt lat="46.2211" lon="4.54761">
        <ele>643.79998779297</ele>
        <time>2019-02-18T14:44:33.000Z</time>
      </trkpt>
      <trkpt lat="46.22105" lon="4.54761">
        <ele>644.20001220703</ele>
        <time>2019-02-18T14:44:35.000Z</time>
      </trkpt>
      <trkpt lat="46.22092" lon="4.54766">
        <ele>644.79998779297</ele>
        <time>2019-02-18T14:44:40.000Z</time>
      </trkpt>
      <trkpt lat="46.22089" lon="4.54766">
        <ele>645</ele>
        <time>2019-02-18T14:44:41.000Z</time>
      </trkpt>
      <trkpt lat="46.22081" lon="4.54769">
        <ele>645.40002441406</ele>
        <time>2019-02-18T14:44:44.000Z</time>
      </trkpt>
      <trkpt lat="46.22066" lon="4.54772">
        <ele>646.59997558594</ele>
        <time>2019-02-18T14:44:49.000Z</time>
      </trkpt>
      <trkpt lat="46.22054" lon="4.54771">
        <ele>647.20001220703</ele>
        <time>2019-02-18T14:44:53.000Z</time>
      </trkpt>
      <trkpt lat="46.22044" lon="4.54765">
        <ele>648</ele>
        <time>2019-02-18T14:44:57.000Z</time>
      </trkpt>
      <trkpt lat="46.22025" lon="4.54749">
        <ele>650.40002441406</ele>
        <time>2019-02-18T14:45:05.000Z</time>
      </trkpt>
      <trkpt lat="46.22007" lon="4.54733">
        <ele>653</ele>
        <time>2019-02-18T14:45:13.000Z</time>
      </trkpt>
      <trkpt lat="46.21999" lon="4.54728">
        <ele>653.79998779297</ele>
        <time>2019-02-18T14:45:16.000Z</time>
      </trkpt>
      <trkpt lat="46.21989" lon="4.54724">
        <ele>654.40002441406</ele>
        <time>2019-02-18T14:45:20.000Z</time>
      </trkpt>
      <trkpt lat="46.21984" lon="4.54723">
        <ele>654.40002441406</ele>
        <time>2019-02-18T14:45:22.000Z</time>
      </trkpt>
      <trkpt lat="46.21979" lon="4.54723">
        <ele>654.59997558594</ele>
        <time>2019-02-18T14:45:24.000Z</time>
      </trkpt>
      <trkpt lat="46.21971" lon="4.54723">
        <ele>654.40002441406</ele>
        <time>2019-02-18T14:45:27.000Z</time>
      </trkpt>
      <trkpt lat="46.21964" lon="4.54725">
        <ele>653.79998779297</ele>
        <time>2019-02-18T14:45:30.000Z</time>
      </trkpt>
      <trkpt lat="46.21949" lon="4.54733">
        <ele>652.40002441406</ele>
        <time>2019-02-18T14:45:36.000Z</time>
      </trkpt>
      <trkpt lat="46.21933" lon="4.54745">
        <ele>650.59997558594</ele>
        <time>2019-02-18T14:45:43.000Z</time>
      </trkpt>
      <trkpt lat="46.2192" lon="4.54759">
        <ele>650.79998779297</ele>
        <time>2019-02-18T14:45:49.000Z</time>
      </trkpt>
      <trkpt lat="46.21917" lon="4.54761">
        <ele>650.79998779297</ele>
        <time>2019-02-18T14:45:50.000Z</time>
      </trkpt>
      <trkpt lat="46.21902" lon="4.54776">
        <ele>651</ele>
        <time>2019-02-18T14:45:57.000Z</time>
      </trkpt>
      <trkpt lat="46.219" lon="4.54778">
        <ele>651</ele>
        <time>2019-02-18T14:45:58.000Z</time>
      </trkpt>
      <trkpt lat="46.21889" lon="4.54786">
        <ele>651.40002441406</ele>
        <time>2019-02-18T14:46:03.000Z</time>
      </trkpt>
      <trkpt lat="46.21883" lon="4.5479">
        <ele>651.20001220703</ele>
        <time>2019-02-18T14:46:05.000Z</time>
      </trkpt>
      <trkpt lat="46.2187" lon="4.548">
        <ele>650.79998779297</ele>
        <time>2019-02-18T14:46:10.000Z</time>
      </trkpt>
      <trkpt lat="46.21865" lon="4.54803">
        <ele>651</ele>
        <time>2019-02-18T14:46:12.000Z</time>
      </trkpt>
      <trkpt lat="46.21854" lon="4.54809">
        <ele>650.79998779297</ele>
        <time>2019-02-18T14:46:16.000Z</time>
      </trkpt>
      <trkpt lat="46.21847" lon="4.54814">
        <ele>650.79998779297</ele>
        <time>2019-02-18T14:46:19.000Z</time>
      </trkpt>
      <trkpt lat="46.21837" lon="4.5482">
        <ele>651.40002441406</ele>
        <time>2019-02-18T14:46:23.000Z</time>
      </trkpt>
      <trkpt lat="46.21834" lon="4.5482">
        <ele>651.59997558594</ele>
        <time>2019-02-18T14:46:24.000Z</time>
      </trkpt>
      <trkpt lat="46.21819" lon="4.54825">
        <ele>653.20001220703</ele>
        <time>2019-02-18T14:46:29.000Z</time>
      </trkpt>
      <trkpt lat="46.21813" lon="4.54826">
        <ele>653.79998779297</ele>
        <time>2019-02-18T14:46:31.000Z</time>
      </trkpt>
      <trkpt lat="46.21793" lon="4.54829">
        <ele>653.59997558594</ele>
        <time>2019-02-18T14:46:38.000Z</time>
      </trkpt>
      <trkpt lat="46.21773" lon="4.54832">
        <ele>653.59997558594</ele>
        <time>2019-02-18T14:46:45.000Z</time>
      </trkpt>
      <trkpt lat="46.2177" lon="4.54831">
        <ele>653.79998779297</ele>
        <time>2019-02-18T14:46:46.000Z</time>
      </trkpt>
      <trkpt lat="46.21748" lon="4.54827">
        <ele>655.40002441406</ele>
        <time>2019-02-18T14:46:54.000Z</time>
      </trkpt>
      <trkpt lat="46.21745" lon="4.54826">
        <ele>655.59997558594</ele>
        <time>2019-02-18T14:46:55.000Z</time>
      </trkpt>
      <trkpt lat="46.21727" lon="4.54815">
        <ele>656.79998779297</ele>
        <time>2019-02-18T14:47:02.000Z</time>
      </trkpt>
      <trkpt lat="46.21725" lon="4.54814">
        <ele>657</ele>
        <time>2019-02-18T14:47:03.000Z</time>
      </trkpt>
      <trkpt lat="46.21721" lon="4.54811">
        <ele>657.20001220703</ele>
        <time>2019-02-18T14:47:05.000Z</time>
      </trkpt>
      <trkpt lat="46.21717" lon="4.54803">
        <ele>657.40002441406</ele>
        <time>2019-02-18T14:47:08.000Z</time>
      </trkpt>
      <trkpt lat="46.21715" lon="4.548">
        <ele>657.59997558594</ele>
        <time>2019-02-18T14:47:09.000Z</time>
      </trkpt>
      <trkpt lat="46.21705" lon="4.54786">
        <ele>658.20001220703</ele>
        <time>2019-02-18T14:47:14.000Z</time>
      </trkpt>
      <trkpt lat="46.2169" lon="4.5477">
        <ele>657.79998779297</ele>
        <time>2019-02-18T14:47:19.000Z</time>
      </trkpt>
      <trkpt lat="46.21665" lon="4.54747">
        <ele>657</ele>
        <time>2019-02-18T14:47:26.000Z</time>
      </trkpt>
      <trkpt lat="46.21653" lon="4.54737">
        <ele>656.59997558594</ele>
        <time>2019-02-18T14:47:29.000Z</time>
      </trkpt>
      <trkpt lat="46.21642" lon="4.54727">
        <ele>656.59997558594</ele>
        <time>2019-02-18T14:47:32.000Z</time>
      </trkpt>
      <trkpt lat="46.21625" lon="4.54713">
        <ele>657.20001220703</ele>
        <time>2019-02-18T14:47:36.000Z</time>
      </trkpt>
      <trkpt lat="46.21612" lon="4.54703">
        <ele>658</ele>
        <time>2019-02-18T14:47:39.000Z</time>
      </trkpt>
      <trkpt lat="46.2159" lon="4.54687">
        <ele>658.20001220703</ele>
        <time>2019-02-18T14:47:44.000Z</time>
      </trkpt>
      <trkpt lat="46.21578" lon="4.54676">
        <ele>658.40002441406</ele>
        <time>2019-02-18T14:47:47.000Z</time>
      </trkpt>
      <trkpt lat="46.21571" lon="4.54668">
        <ele>658.20001220703</ele>
        <time>2019-02-18T14:47:49.000Z</time>
      </trkpt>
      <trkpt lat="46.21561" lon="4.54656">
        <ele>657.79998779297</ele>
        <time>2019-02-18T14:47:52.000Z</time>
      </trkpt>
      <trkpt lat="46.21558" lon="4.54652">
        <ele>657.79998779297</ele>
        <time>2019-02-18T14:47:53.000Z</time>
      </trkpt>
      <trkpt lat="46.21551" lon="4.54637">
        <ele>657.40002441406</ele>
        <time>2019-02-18T14:47:56.000Z</time>
      </trkpt>
      <trkpt lat="46.21548" lon="4.54632">
        <ele>657.20001220703</ele>
        <time>2019-02-18T14:47:57.000Z</time>
      </trkpt>
      <trkpt lat="46.21532" lon="4.54591">
        <ele>656.59997558594</ele>
        <time>2019-02-18T14:48:04.000Z</time>
      </trkpt>
      <trkpt lat="46.21524" lon="4.54568">
        <ele>656.59997558594</ele>
        <time>2019-02-18T14:48:08.000Z</time>
      </trkpt>
      <trkpt lat="46.2152" lon="4.54557">
        <ele>656.59997558594</ele>
        <time>2019-02-18T14:48:10.000Z</time>
      </trkpt>
      <trkpt lat="46.21516" lon="4.54545">
        <ele>656.59997558594</ele>
        <time>2019-02-18T14:48:12.000Z</time>
      </trkpt>
      <trkpt lat="46.21509" lon="4.54516">
        <ele>657</ele>
        <time>2019-02-18T14:48:17.000Z</time>
      </trkpt>
      <trkpt lat="46.21506" lon="4.54497">
        <ele>657.40002441406</ele>
        <time>2019-02-18T14:48:20.000Z</time>
      </trkpt>
      <trkpt lat="46.21506" lon="4.54483">
        <ele>657.40002441406</ele>
        <time>2019-02-18T14:48:22.000Z</time>
      </trkpt>
      <trkpt lat="46.21509" lon="4.54454">
        <ele>656.40002441406</ele>
        <time>2019-02-18T14:48:26.000Z</time>
      </trkpt>
      <trkpt lat="46.2151" lon="4.54446">
        <ele>655.79998779297</ele>
        <time>2019-02-18T14:48:27.000Z</time>
      </trkpt>
      <trkpt lat="46.2151" lon="4.54392">
        <ele>653</ele>
        <time>2019-02-18T14:48:34.000Z</time>
      </trkpt>
      <trkpt lat="46.21499" lon="4.54347">
        <ele>652.20001220703</ele>
        <time>2019-02-18T14:48:40.000Z</time>
      </trkpt>
      <trkpt lat="46.21485" lon="4.54319">
        <ele>651.20001220703</ele>
        <time>2019-02-18T14:48:44.000Z</time>
      </trkpt>
      <trkpt lat="46.21481" lon="4.54312">
        <ele>651</ele>
        <time>2019-02-18T14:48:45.000Z</time>
      </trkpt>
      <trkpt lat="46.21477" lon="4.54306">
        <ele>650.79998779297</ele>
        <time>2019-02-18T14:48:46.000Z</time>
      </trkpt>
      <trkpt lat="46.21468" lon="4.54294">
        <ele>650.20001220703</ele>
        <time>2019-02-18T14:48:48.000Z</time>
      </trkpt>
      <trkpt lat="46.21451" lon="4.54279">
        <ele>649.20001220703</ele>
        <time>2019-02-18T14:48:51.000Z</time>
      </trkpt>
      <trkpt lat="46.21445" lon="4.54274">
        <ele>648.79998779297</ele>
        <time>2019-02-18T14:48:52.000Z</time>
      </trkpt>
      <trkpt lat="46.21415" lon="4.54253">
        <ele>646.79998779297</ele>
        <time>2019-02-18T14:48:57.000Z</time>
      </trkpt>
      <trkpt lat="46.2141" lon="4.54248">
        <ele>646.40002441406</ele>
        <time>2019-02-18T14:48:58.000Z</time>
      </trkpt>
      <trkpt lat="46.21399" lon="4.54241">
        <ele>645.59997558594</ele>
        <time>2019-02-18T14:49:00.000Z</time>
      </trkpt>
      <trkpt lat="46.21384" lon="4.54231">
        <ele>645</ele>
        <time>2019-02-18T14:49:03.000Z</time>
      </trkpt>
      <trkpt lat="46.21379" lon="4.54228">
        <ele>645</ele>
        <time>2019-02-18T14:49:04.000Z</time>
      </trkpt>
      <trkpt lat="46.21368" lon="4.54223">
        <ele>644.79998779297</ele>
        <time>2019-02-18T14:49:06.000Z</time>
      </trkpt>
      <trkpt lat="46.21356" lon="4.54218">
        <ele>645</ele>
        <time>2019-02-18T14:49:08.000Z</time>
      </trkpt>
      <trkpt lat="46.21344" lon="4.54212">
        <ele>644.59997558594</ele>
        <time>2019-02-18T14:49:10.000Z</time>
      </trkpt>
      <trkpt lat="46.21332" lon="4.54205">
        <ele>644.40002441406</ele>
        <time>2019-02-18T14:49:12.000Z</time>
      </trkpt>
      <trkpt lat="46.21315" lon="4.54193">
        <ele>643.79998779297</ele>
        <time>2019-02-18T14:49:15.000Z</time>
      </trkpt>
      <trkpt lat="46.21271" lon="4.54158">
        <ele>643.20001220703</ele>
        <time>2019-02-18T14:49:23.000Z</time>
      </trkpt>
      <trkpt lat="46.21237" lon="4.54137">
        <ele>643.20001220703</ele>
        <time>2019-02-18T14:49:29.000Z</time>
      </trkpt>
      <trkpt lat="46.21194" lon="4.54121">
        <ele>643.79998779297</ele>
        <time>2019-02-18T14:49:36.000Z</time>
      </trkpt>
      <trkpt lat="46.21168" lon="4.54119">
        <ele>645</ele>
        <time>2019-02-18T14:49:40.000Z</time>
      </trkpt>
      <trkpt lat="46.21155" lon="4.54119">
        <ele>645.59997558594</ele>
        <time>2019-02-18T14:49:42.000Z</time>
      </trkpt>
      <trkpt lat="46.21135" lon="4.54122">
        <ele>645.79998779297</ele>
        <time>2019-02-18T14:49:45.000Z</time>
      </trkpt>
      <trkpt lat="46.21122" lon="4.54123">
        <ele>645.20001220703</ele>
        <time>2019-02-18T14:49:47.000Z</time>
      </trkpt>
      <trkpt lat="46.21115" lon="4.54125">
        <ele>645</ele>
        <time>2019-02-18T14:49:48.000Z</time>
      </trkpt>
      <trkpt lat="46.21086" lon="4.54128">
        <ele>644</ele>
        <time>2019-02-18T14:49:52.000Z</time>
      </trkpt>
      <trkpt lat="46.21078" lon="4.54128">
        <ele>643.59997558594</ele>
        <time>2019-02-18T14:49:53.000Z</time>
      </trkpt>
      <trkpt lat="46.2107" lon="4.54126">
        <ele>643</ele>
        <time>2019-02-18T14:49:54.000Z</time>
      </trkpt>
      <trkpt lat="46.21054" lon="4.54121">
        <ele>641.40002441406</ele>
        <time>2019-02-18T14:49:56.000Z</time>
      </trkpt>
      <trkpt lat="46.21046" lon="4.54117">
        <ele>640.20001220703</ele>
        <time>2019-02-18T14:49:57.000Z</time>
      </trkpt>
      <trkpt lat="46.21038" lon="4.54113">
        <ele>639</ele>
        <time>2019-02-18T14:49:58.000Z</time>
      </trkpt>
      <trkpt lat="46.21013" lon="4.541">
        <ele>634.79998779297</ele>
        <time>2019-02-18T14:50:01.000Z</time>
      </trkpt>
      <trkpt lat="46.20989" lon="4.54086">
        <ele>630.79998779297</ele>
        <time>2019-02-18T14:50:04.000Z</time>
      </trkpt>
      <trkpt lat="46.20981" lon="4.54083">
        <ele>629.59997558594</ele>
        <time>2019-02-18T14:50:05.000Z</time>
      </trkpt>
      <trkpt lat="46.20959" lon="4.54073">
        <ele>628.20001220703</ele>
        <time>2019-02-18T14:50:08.000Z</time>
      </trkpt>
      <trkpt lat="46.20929" lon="4.5406">
        <ele>626.79998779297</ele>
        <time>2019-02-18T14:50:12.000Z</time>
      </trkpt>
      <trkpt lat="46.20921" lon="4.54057">
        <ele>626.40002441406</ele>
        <time>2019-02-18T14:50:13.000Z</time>
      </trkpt>
      <trkpt lat="46.20906" lon="4.5405">
        <ele>626</ele>
        <time>2019-02-18T14:50:15.000Z</time>
      </trkpt>
      <trkpt lat="46.20883" lon="4.5404">
        <ele>625.40002441406</ele>
        <time>2019-02-18T14:50:18.000Z</time>
      </trkpt>
      <trkpt lat="46.2086" lon="4.54031">
        <ele>625.40002441406</ele>
        <time>2019-02-18T14:50:21.000Z</time>
      </trkpt>
      <trkpt lat="46.20853" lon="4.54028">
        <ele>625.59997558594</ele>
        <time>2019-02-18T14:50:22.000Z</time>
      </trkpt>
      <trkpt lat="46.20815" lon="4.54012">
        <ele>626</ele>
        <time>2019-02-18T14:50:27.000Z</time>
      </trkpt>
      <trkpt lat="46.20794" lon="4.54">
        <ele>625.79998779297</ele>
        <time>2019-02-18T14:50:30.000Z</time>
      </trkpt>
      <trkpt lat="46.20787" lon="4.53996">
        <ele>625.79998779297</ele>
        <time>2019-02-18T14:50:31.000Z</time>
      </trkpt>
      <trkpt lat="46.20773" lon="4.53986">
        <ele>625.40002441406</ele>
        <time>2019-02-18T14:50:33.000Z</time>
      </trkpt>
      <trkpt lat="46.20766" lon="4.53981">
        <ele>625.20001220703</ele>
        <time>2019-02-18T14:50:34.000Z</time>
      </trkpt>
      <trkpt lat="46.20754" lon="4.53968">
        <ele>624.59997558594</ele>
        <time>2019-02-18T14:50:36.000Z</time>
      </trkpt>
      <trkpt lat="46.20743" lon="4.53953">
        <ele>623.59997558594</ele>
        <time>2019-02-18T14:50:38.000Z</time>
      </trkpt>
      <trkpt lat="46.20734" lon="4.53937">
        <ele>624.20001220703</ele>
        <time>2019-02-18T14:50:40.000Z</time>
      </trkpt>
      <trkpt lat="46.2073" lon="4.53928">
        <ele>624.40002441406</ele>
        <time>2019-02-18T14:50:41.000Z</time>
      </trkpt>
      <trkpt lat="46.20723" lon="4.53911">
        <ele>624.40002441406</ele>
        <time>2019-02-18T14:50:43.000Z</time>
      </trkpt>
      <trkpt lat="46.20715" lon="4.53886">
        <ele>624.40002441406</ele>
        <time>2019-02-18T14:50:46.000Z</time>
      </trkpt>
      <trkpt lat="46.20711" lon="4.5387">
        <ele>624.40002441406</ele>
        <time>2019-02-18T14:50:48.000Z</time>
      </trkpt>
      <trkpt lat="46.2071" lon="4.53861">
        <ele>624.79998779297</ele>
        <time>2019-02-18T14:50:49.000Z</time>
      </trkpt>
      <trkpt lat="46.20708" lon="4.53842">
        <ele>625.20001220703</ele>
        <time>2019-02-18T14:50:51.000Z</time>
      </trkpt>
      <trkpt lat="46.20709" lon="4.53824">
        <ele>625.20001220703</ele>
        <time>2019-02-18T14:50:53.000Z</time>
      </trkpt>
      <trkpt lat="46.20712" lon="4.53802">
        <ele>625.40002441406</ele>
        <time>2019-02-18T14:50:56.000Z</time>
      </trkpt>
      <trkpt lat="46.20715" lon="4.53785">
        <ele>625.59997558594</ele>
        <time>2019-02-18T14:51:00.000Z</time>
      </trkpt>
      <trkpt lat="46.20716" lon="4.53778">
        <ele>625.79998779297</ele>
        <time>2019-02-18T14:52:36.000Z</time>
      </trkpt>
      <trkpt lat="46.20714" lon="4.5376">
        <ele>626</ele>
        <time>2019-02-18T14:52:42.000Z</time>
      </trkpt>
      <trkpt lat="46.20712" lon="4.5375">
        <ele>626</ele>
        <time>2019-02-18T14:52:45.000Z</time>
      </trkpt>
      <trkpt lat="46.20705" lon="4.53739">
        <ele>626</ele>
        <time>2019-02-18T14:52:48.000Z</time>
      </trkpt>
      <trkpt lat="46.20697" lon="4.5373">
        <ele>626</ele>
        <time>2019-02-18T14:52:51.000Z</time>
      </trkpt>
      <trkpt lat="46.20691" lon="4.53722">
        <ele>626</ele>
        <time>2019-02-18T14:52:53.000Z</time>
      </trkpt>
      <trkpt lat="46.20685" lon="4.53702">
        <ele>626</ele>
        <time>2019-02-18T14:52:57.000Z</time>
      </trkpt>
    </trkseg>
  </trk>
</gpx>